sensor_id;sensor_type;location;lat;lon;timestamp;P1;durP1;ratioP1;P2;durP2;ratioP2
3355;SDS011;1691;52.486;13.374;2023-10-31T00:01:58;9.37;;;5.10;;
3355;SDS011;1691;52.486;13.374;2023-10-31T00:04:26;12.93;;;5.50;;
3355;SDS011;1691;52.486;13.374;2023-10-31T00:06:53;4.97;;;3.90;;
3355;SDS011;1691;52.486;13.374;2023-10-31T00:09:20;11.57;;;4.77;;
3355;SDS011;1691;52.486;13.374;2023-10-31T00:11:47;5.50;;;4.70;;
3355;SDS011;1691;52.486;13.374;2023-10-31T00:14:15;10.10;;;4.13;;
3355;SDS011;1691;52.486;13.374;2023-10-31T00:16:57;5.50;;;5.10;;
3355;SDS011;1691;52.486;13.374;2023-10-31T00:19:27;5.07;;;4.63;;
3355;SDS011;1691;52.486;13.374;2023-10-31T00:21:54;5.30;;;4.37;;
3355;SDS011;1691;52.486;13.374;2023-10-31T00:24:21;5.50;;;5.00;;
3355;SDS011;1691;52.486;13.374;2023-10-31T00:26:49;5.00;;;4.30;;
3355;SDS011;1691;52.486;13.374;2023-10-31T00:29:16;4.70;;;4.07;;
3355;SDS011;1691;52.486;13.374;2023-10-31T00:31:43;8.27;;;5.17;;
3355;SDS011;1691;52.486;13.374;2023-10-31T00:34:11;5.77;;;4.20;;
3355;SDS011;1691;52.486;13.374;2023-10-31T00:36:38;16.63;;;5.50;;
3355;SDS011;1691;52.486;13.374;2023-10-31T00:39:05;4.93;;;4.43;;
3355;SDS011;1691;52.486;13.374;2023-10-31T00:41:32;8.90;;;4.93;;
3355;SDS011;1691;52.486;13.374;2023-10-31T00:43:59;8.10;;;6.10;;
3355;SDS011;1691;52.486;13.374;2023-10-31T00:46:26;8.10;;;4.97;;
3355;SDS011;1691;52.486;13.374;2023-10-31T00:48:54;14.13;;;5.13;;
3355;SDS011;1691;52.486;13.374;2023-10-31T00:51:21;5.17;;;4.87;;
3355;SDS011;1691;52.486;13.374;2023-10-31T00:53:48;5.03;;;4.73;;
3355;SDS011;1691;52.486;13.374;2023-10-31T00:56:15;8.80;;;4.87;;
3355;SDS011;1691;52.486;13.374;2023-10-31T00:58:42;7.00;;;5.27;;
3355;SDS011;1691;52.486;13.374;2023-10-31T01:01:09;5.37;;;5.07;;
3355;SDS011;1691;52.486;13.374;2023-10-31T01:03:37;6.60;;;4.70;;
3355;SDS011;1691;52.486;13.374;2023-10-31T01:06:04;19.73;;;4.87;;
3355;SDS011;1691;52.486;13.374;2023-10-31T01:08:31;5.73;;;5.33;;
3355;SDS011;1691;52.486;13.374;2023-10-31T01:10:58;18.67;;;5.47;;
3355;SDS011;1691;52.486;13.374;2023-10-31T01:13:25;6.70;;;6.00;;
3355;SDS011;1691;52.486;13.374;2023-10-31T01:15:52;6.33;;;5.00;;
3355;SDS011;1691;52.486;13.374;2023-10-31T01:18:20;5.00;;;4.60;;
3355;SDS011;1691;52.486;13.374;2023-10-31T01:20:47;5.73;;;5.23;;
3355;SDS011;1691;52.486;13.374;2023-10-31T01:23:14;8.37;;;5.50;;
3355;SDS011;1691;52.486;13.374;2023-10-31T01:25:41;6.70;;;6.03;;
3355;SDS011;1691;52.486;13.374;2023-10-31T01:28:08;6.60;;;4.77;;
3355;SDS011;1691;52.486;13.374;2023-10-31T01:30:35;7.30;;;5.40;;
3355;SDS011;1691;52.486;13.374;2023-10-31T01:33:02;6.93;;;6.33;;
3355;SDS011;1691;52.486;13.374;2023-10-31T01:35:30;6.90;;;6.23;;
3355;SDS011;1691;52.486;13.374;2023-10-31T01:37:57;7.87;;;6.30;;
3355;SDS011;1691;52.486;13.374;2023-10-31T01:40:24;14.37;;;6.40;;
3355;SDS011;1691;52.486;13.374;2023-10-31T01:42:51;9.83;;;5.60;;
3355;SDS011;1691;52.486;13.374;2023-10-31T01:45:18;10.50;;;5.30;;
3355;SDS011;1691;52.486;13.374;2023-10-31T01:47:46;20.83;;;6.80;;
3355;SDS011;1691;52.486;13.374;2023-10-31T01:50:16;6.97;;;6.37;;
3355;SDS011;1691;52.486;13.374;2023-10-31T01:52:44;7.73;;;6.07;;
3355;SDS011;1691;52.486;13.374;2023-10-31T01:55:12;5.77;;;5.47;;
3355;SDS011;1691;52.486;13.374;2023-10-31T01:57:39;20.10;;;6.20;;
3355;SDS011;1691;52.486;13.374;2023-10-31T02:00:07;9.60;;;5.67;;
3355;SDS011;1691;52.486;13.374;2023-10-31T02:02:35;8.10;;;5.87;;
3355;SDS011;1691;52.486;13.374;2023-10-31T02:05:04;7.70;;;6.10;;
3355;SDS011;1691;52.486;13.374;2023-10-31T02:07:32;5.80;;;5.40;;
3355;SDS011;1691;52.486;13.374;2023-10-31T02:09:59;6.07;;;5.67;;
3355;SDS011;1691;52.486;13.374;2023-10-31T02:12:34;15.07;;;6.43;;
3355;SDS011;1691;52.486;13.374;2023-10-31T02:15:03;8.73;;;5.87;;
3355;SDS011;1691;52.486;13.374;2023-10-31T02:17:31;12.00;;;6.00;;
3355;SDS011;1691;52.486;13.374;2023-10-31T02:19:58;7.60;;;6.97;;
3355;SDS011;1691;52.486;13.374;2023-10-31T02:22:25;10.77;;;7.30;;
3355;SDS011;1691;52.486;13.374;2023-10-31T02:24:53;10.20;;;7.17;;
3355;SDS011;1691;52.486;13.374;2023-10-31T02:27:20;10.43;;;7.00;;
3355;SDS011;1691;52.486;13.374;2023-10-31T02:29:47;7.83;;;6.43;;
3355;SDS011;1691;52.486;13.374;2023-10-31T02:32:14;7.27;;;6.20;;
3355;SDS011;1691;52.486;13.374;2023-10-31T02:34:41;11.17;;;6.93;;
3355;SDS011;1691;52.486;13.374;2023-10-31T02:37:11;12.20;;;6.83;;
3355;SDS011;1691;52.486;13.374;2023-10-31T02:39:38;8.53;;;7.73;;
3355;SDS011;1691;52.486;13.374;2023-10-31T02:42:05;7.00;;;6.40;;
3355;SDS011;1691;52.486;13.374;2023-10-31T02:44:32;7.03;;;6.40;;
3355;SDS011;1691;52.486;13.374;2023-10-31T02:46:59;7.80;;;7.20;;
3355;SDS011;1691;52.486;13.374;2023-10-31T02:49:27;8.27;;;7.47;;
3355;SDS011;1691;52.486;13.374;2023-10-31T02:51:54;7.70;;;7.00;;
3355;SDS011;1691;52.486;13.374;2023-10-31T02:54:21;11.07;;;8.50;;
3355;SDS011;1691;52.486;13.374;2023-10-31T02:56:48;14.33;;;8.43;;
3355;SDS011;1691;52.486;13.374;2023-10-31T02:59:15;10.27;;;6.67;;
3355;SDS011;1691;52.486;13.374;2023-10-31T03:01:42;24.27;;;6.57;;
3355;SDS011;1691;52.486;13.374;2023-10-31T03:04:10;9.93;;;7.33;;
3355;SDS011;1691;52.486;13.374;2023-10-31T03:06:37;10.07;;;7.03;;
3355;SDS011;1691;52.486;13.374;2023-10-31T03:09:04;8.93;;;6.83;;
3355;SDS011;1691;52.486;13.374;2023-10-31T03:11:33;8.23;;;7.37;;
3355;SDS011;1691;52.486;13.374;2023-10-31T03:14:00;9.03;;;7.30;;
3355;SDS011;1691;52.486;13.374;2023-10-31T03:16:27;9.50;;;7.30;;
3355;SDS011;1691;52.486;13.374;2023-10-31T03:18:55;13.53;;;7.83;;
3355;SDS011;1691;52.486;13.374;2023-10-31T03:21:22;8.90;;;7.77;;
3355;SDS011;1691;52.486;13.374;2023-10-31T03:23:50;9.90;;;7.40;;
3355;SDS011;1691;52.486;13.374;2023-10-31T03:26:19;11.00;;;8.07;;
3355;SDS011;1691;52.486;13.374;2023-10-31T03:28:46;12.33;;;7.07;;
3355;SDS011;1691;52.486;13.374;2023-10-31T03:31:14;7.87;;;7.10;;
3355;SDS011;1691;52.486;13.374;2023-10-31T03:33:42;7.50;;;6.90;;
3355;SDS011;1691;52.486;13.374;2023-10-31T03:36:09;10.40;;;7.60;;
3355;SDS011;1691;52.486;13.374;2023-10-31T03:38:36;12.13;;;7.50;;
3355;SDS011;1691;52.486;13.374;2023-10-31T03:41:04;16.80;;;7.17;;
3355;SDS011;1691;52.486;13.374;2023-10-31T03:43:31;8.17;;;6.90;;
3355;SDS011;1691;52.486;13.374;2023-10-31T03:45:59;11.10;;;7.10;;
3355;SDS011;1691;52.486;13.374;2023-10-31T03:48:26;21.87;;;8.07;;
3355;SDS011;1691;52.486;13.374;2023-10-31T03:50:53;10.00;;;7.17;;
3355;SDS011;1691;52.486;13.374;2023-10-31T03:53:20;10.00;;;6.70;;
3355;SDS011;1691;52.486;13.374;2023-10-31T03:55:47;7.90;;;7.20;;
3355;SDS011;1691;52.486;13.374;2023-10-31T03:58:15;11.07;;;6.90;;
3355;SDS011;1691;52.486;13.374;2023-10-31T04:00:42;28.70;;;7.90;;
3355;SDS011;1691;52.486;13.374;2023-10-31T04:03:09;8.03;;;6.90;;
3355;SDS011;1691;52.486;13.374;2023-10-31T04:05:36;8.20;;;7.43;;
3355;SDS011;1691;52.486;13.374;2023-10-31T04:08:04;11.53;;;6.80;;
3355;SDS011;1691;52.486;13.374;2023-10-31T04:10:31;14.70;;;6.07;;
3355;SDS011;1691;52.486;13.374;2023-10-31T04:12:58;11.77;;;7.20;;
3355;SDS011;1691;52.486;13.374;2023-10-31T04:15:25;6.80;;;6.17;;
3355;SDS011;1691;52.486;13.374;2023-10-31T04:17:52;7.90;;;7.07;;
3355;SDS011;1691;52.486;13.374;2023-10-31T04:20:19;9.20;;;6.17;;
3355;SDS011;1691;52.486;13.374;2023-10-31T04:22:47;9.10;;;7.30;;
3355;SDS011;1691;52.486;13.374;2023-10-31T04:25:14;8.17;;;7.03;;
3355;SDS011;1691;52.486;13.374;2023-10-31T04:27:41;7.30;;;6.67;;
3355;SDS011;1691;52.486;13.374;2023-10-31T04:30:09;8.27;;;7.67;;
3355;SDS011;1691;52.486;13.374;2023-10-31T04:32:40;8.70;;;7.80;;
3355;SDS011;1691;52.486;13.374;2023-10-31T04:35:08;9.53;;;8.40;;
3355;SDS011;1691;52.486;13.374;2023-10-31T04:37:35;7.10;;;6.57;;
3355;SDS011;1691;52.486;13.374;2023-10-31T04:40:02;8.23;;;7.53;;
3355;SDS011;1691;52.486;13.374;2023-10-31T04:42:34;11.33;;;7.50;;
3355;SDS011;1691;52.486;13.374;2023-10-31T04:45:01;13.20;;;7.87;;
3355;SDS011;1691;52.486;13.374;2023-10-31T04:47:29;8.60;;;7.80;;
3355;SDS011;1691;52.486;13.374;2023-10-31T04:49:56;12.73;;;8.60;;
3355;SDS011;1691;52.486;13.374;2023-10-31T04:52:24;9.53;;;8.63;;
3355;SDS011;1691;52.486;13.374;2023-10-31T04:54:52;7.77;;;7.00;;
3355;SDS011;1691;52.486;13.374;2023-10-31T04:57:20;10.03;;;8.07;;
3355;SDS011;1691;52.486;13.374;2023-10-31T04:59:47;11.87;;;8.97;;
3355;SDS011;1691;52.486;13.374;2023-10-31T05:02:14;8.70;;;7.90;;
3355;SDS011;1691;52.486;13.374;2023-10-31T05:04:41;18.13;;;8.57;;
3355;SDS011;1691;52.486;13.374;2023-10-31T05:07:08;10.10;;;8.40;;
3355;SDS011;1691;52.486;13.374;2023-10-31T05:09:35;16.10;;;8.30;;
3355;SDS011;1691;52.486;13.374;2023-10-31T05:12:02;9.30;;;8.50;;
3355;SDS011;1691;52.486;13.374;2023-10-31T05:14:30;8.53;;;7.83;;
3355;SDS011;1691;52.486;13.374;2023-10-31T05:16:57;9.30;;;8.63;;
3355;SDS011;1691;52.486;13.374;2023-10-31T05:19:24;12.83;;;9.27;;
3355;SDS011;1691;52.486;13.374;2023-10-31T05:21:52;9.73;;;8.93;;
3355;SDS011;1691;52.486;13.374;2023-10-31T05:24:19;12.13;;;8.67;;
3355;SDS011;1691;52.486;13.374;2023-10-31T05:26:46;10.30;;;9.37;;
3355;SDS011;1691;52.486;13.374;2023-10-31T05:29:13;12.20;;;9.20;;
3355;SDS011;1691;52.486;13.374;2023-10-31T05:31:40;8.60;;;7.40;;
3355;SDS011;1691;52.486;13.374;2023-10-31T05:34:09;9.53;;;8.70;;
3355;SDS011;1691;52.486;13.374;2023-10-31T05:36:36;8.60;;;8.00;;
3355;SDS011;1691;52.486;13.374;2023-10-31T05:39:04;13.60;;;9.97;;
3355;SDS011;1691;52.486;13.374;2023-10-31T05:41:33;8.50;;;7.70;;
3355;SDS011;1691;52.486;13.374;2023-10-31T05:44:01;7.83;;;7.27;;
3355;SDS011;1691;52.486;13.374;2023-10-31T05:46:28;6.87;;;6.47;;
3355;SDS011;1691;52.486;13.374;2023-10-31T05:48:56;8.80;;;8.10;;
3355;SDS011;1691;52.486;13.374;2023-10-31T05:51:23;7.20;;;6.80;;
3355;SDS011;1691;52.486;13.374;2023-10-31T05:53:52;7.10;;;6.33;;
3355;SDS011;1691;52.486;13.374;2023-10-31T05:56:19;6.37;;;5.90;;
3355;SDS011;1691;52.486;13.374;2023-10-31T05:58:46;11.47;;;6.00;;
3355;SDS011;1691;52.486;13.374;2023-10-31T06:01:13;7.53;;;6.63;;
3355;SDS011;1691;52.486;13.374;2023-10-31T06:03:41;6.63;;;6.20;;
3355;SDS011;1691;52.486;13.374;2023-10-31T06:06:10;6.40;;;6.03;;
3355;SDS011;1691;52.486;13.374;2023-10-31T06:08:39;6.17;;;5.67;;
3355;SDS011;1691;52.486;13.374;2023-10-31T06:11:10;7.20;;;6.63;;
3355;SDS011;1691;52.486;13.374;2023-10-31T06:13:42;6.93;;;6.43;;
3355;SDS011;1691;52.486;13.374;2023-10-31T06:16:09;6.60;;;5.90;;
3355;SDS011;1691;52.486;13.374;2023-10-31T06:18:37;6.60;;;5.90;;
3355;SDS011;1691;52.486;13.374;2023-10-31T06:21:06;6.27;;;5.77;;
3355;SDS011;1691;52.486;13.374;2023-10-31T06:23:37;5.60;;;5.20;;
3355;SDS011;1691;52.486;13.374;2023-10-31T06:26:04;6.23;;;5.60;;
3355;SDS011;1691;52.486;13.374;2023-10-31T06:28:32;6.53;;;5.93;;
3355;SDS011;1691;52.486;13.374;2023-10-31T06:31:06;25.40;;;17.50;;
3355;SDS011;1691;52.486;13.374;2023-10-31T06:33:34;8.50;;;7.77;;
3355;SDS011;1691;52.486;13.374;2023-10-31T06:36:02;14.13;;;9.70;;
3355;SDS011;1691;52.486;13.374;2023-10-31T06:38:29;7.57;;;6.90;;
3355;SDS011;1691;52.486;13.374;2023-10-31T06:40:56;18.90;;;12.83;;
3355;SDS011;1691;52.486;13.374;2023-10-31T06:43:23;5.87;;;5.43;;
3355;SDS011;1691;52.486;13.374;2023-10-31T06:45:51;5.80;;;5.33;;
3355;SDS011;1691;52.486;13.374;2023-10-31T06:48:18;4.97;;;4.67;;
3355;SDS011;1691;52.486;13.374;2023-10-31T06:50:45;3.97;;;3.70;;
3355;SDS011;1691;52.486;13.374;2023-10-31T06:53:12;4.40;;;4.10;;
3355;SDS011;1691;52.486;13.374;2023-10-31T06:55:39;4.23;;;3.77;;
3355;SDS011;1691;52.486;13.374;2023-10-31T06:58:07;5.03;;;4.73;;
3355;SDS011;1691;52.486;13.374;2023-10-31T07:00:34;4.40;;;4.20;;
3355;SDS011;1691;52.486;13.374;2023-10-31T07:03:01;3.33;;;3.23;;
3355;SDS011;1691;52.486;13.374;2023-10-31T07:05:33;5.50;;;5.00;;
3355;SDS011;1691;52.486;13.374;2023-10-31T07:08:00;4.70;;;4.37;;
3355;SDS011;1691;52.486;13.374;2023-10-31T07:10:27;4.50;;;3.30;;
3355;SDS011;1691;52.486;13.374;2023-10-31T07:12:54;3.57;;;3.37;;
3355;SDS011;1691;52.486;13.374;2023-10-31T07:15:22;3.10;;;2.90;;
3355;SDS011;1691;52.486;13.374;2023-10-31T07:17:49;3.87;;;3.67;;
3355;SDS011;1691;52.486;13.374;2023-10-31T07:20:16;2.93;;;2.83;;
3355;SDS011;1691;52.486;13.374;2023-10-31T07:22:43;3.57;;;2.03;;
3355;SDS011;1691;52.486;13.374;2023-10-31T07:25:11;2.30;;;2.20;;
3355;SDS011;1691;52.486;13.374;2023-10-31T07:27:39;2.37;;;2.27;;
3355;SDS011;1691;52.486;13.374;2023-10-31T07:30:06;2.40;;;2.30;;
3355;SDS011;1691;52.486;13.374;2023-10-31T07:32:33;2.27;;;2.17;;
3355;SDS011;1691;52.486;13.374;2023-10-31T07:35:01;2.07;;;1.97;;
3355;SDS011;1691;52.486;13.374;2023-10-31T07:37:29;1.77;;;1.67;;
3355;SDS011;1691;52.486;13.374;2023-10-31T07:39:57;2.07;;;1.53;;
3355;SDS011;1691;52.486;13.374;2023-10-31T07:42:24;1.83;;;1.73;;
3355;SDS011;1691;52.486;13.374;2023-10-31T07:44:52;1.70;;;1.60;;
3355;SDS011;1691;52.486;13.374;2023-10-31T07:47:19;1.80;;;1.70;;
3355;SDS011;1691;52.486;13.374;2023-10-31T07:49:47;1.53;;;1.43;;
3355;SDS011;1691;52.486;13.374;2023-10-31T07:52:14;1.47;;;1.37;;
3355;SDS011;1691;52.486;13.374;2023-10-31T07:54:42;4.80;;;1.77;;
3355;SDS011;1691;52.486;13.374;2023-10-31T07:57:09;1.47;;;1.30;;
3355;SDS011;1691;52.486;13.374;2023-10-31T07:59:36;1.43;;;1.33;;
3355;SDS011;1691;52.486;13.374;2023-10-31T08:02:03;1.00;;;1.00;;
3355;SDS011;1691;52.486;13.374;2023-10-31T08:04:31;1.63;;;1.53;;
3355;SDS011;1691;52.486;13.374;2023-10-31T08:06:58;1.57;;;1.03;;
3355;SDS011;1691;52.486;13.374;2023-10-31T08:09:25;0.90;;;0.90;;
3355;SDS011;1691;52.486;13.374;2023-10-31T08:11:52;2.10;;;1.10;;
3355;SDS011;1691;52.486;13.374;2023-10-31T08:14:21;0.70;;;0.70;;
3355;SDS011;1691;52.486;13.374;2023-10-31T08:16:51;1.80;;;0.93;;
3355;SDS011;1691;52.486;13.374;2023-10-31T08:19:18;3.70;;;1.27;;
3355;SDS011;1691;52.486;13.374;2023-10-31T08:21:45;3.07;;;0.80;;
3355;SDS011;1691;52.486;13.374;2023-10-31T08:24:12;1.37;;;0.83;;
3355;SDS011;1691;52.486;13.374;2023-10-31T08:26:39;0.93;;;0.93;;
3355;SDS011;1691;52.486;13.374;2023-10-31T08:29:07;1.30;;;1.20;;
3355;SDS011;1691;52.486;13.374;2023-10-31T08:31:34;1.10;;;1.10;;
3355;SDS011;1691;52.486;13.374;2023-10-31T08:34:01;0.90;;;0.80;;
3355;SDS011;1691;52.486;13.374;2023-10-31T08:36:29;0.73;;;0.73;;
3355;SDS011;1691;52.486;13.374;2023-10-31T08:38:56;1.23;;;1.13;;
3355;SDS011;1691;52.486;13.374;2023-10-31T08:41:23;0.90;;;0.90;;
3355;SDS011;1691;52.486;13.374;2023-10-31T08:43:50;0.70;;;0.60;;
3355;SDS011;1691;52.486;13.374;2023-10-31T08:46:18;4.50;;;1.10;;
3355;SDS011;1691;52.486;13.374;2023-10-31T08:48:45;2.60;;;0.70;;
3355;SDS011;1691;52.486;13.374;2023-10-31T08:51:12;1.03;;;0.97;;
3355;SDS011;1691;52.486;13.374;2023-10-31T08:53:39;1.17;;;0.73;;
3355;SDS011;1691;52.486;13.374;2023-10-31T08:56:06;4.53;;;0.80;;
3355;SDS011;1691;52.486;13.374;2023-10-31T08:58:34;9.07;;;1.07;;
3355;SDS011;1691;52.486;13.374;2023-10-31T09:01:01;0.87;;;0.70;;
3355;SDS011;1691;52.486;13.374;2023-10-31T09:03:28;0.70;;;0.60;;
3355;SDS011;1691;52.486;13.374;2023-10-31T09:05:57;0.73;;;0.67;;
3355;SDS011;1691;52.486;13.374;2023-10-31T09:08:24;0.80;;;0.60;;
3355;SDS011;1691;52.486;13.374;2023-10-31T09:10:51;0.70;;;0.70;;
3355;SDS011;1691;52.486;13.374;2023-10-31T09:13:19;0.80;;;0.77;;
3355;SDS011;1691;52.486;13.374;2023-10-31T09:15:46;1.87;;;0.60;;
3355;SDS011;1691;52.486;13.374;2023-10-31T09:18:13;5.80;;;0.70;;
3355;SDS011;1691;52.486;13.374;2023-10-31T09:20:40;0.70;;;0.53;;
3355;SDS011;1691;52.486;13.374;2023-10-31T09:23:08;1.53;;;0.60;;
3355;SDS011;1691;52.486;13.374;2023-10-31T09:25:35;3.10;;;0.70;;
3355;SDS011;1691;52.486;13.374;2023-10-31T09:28:02;3.07;;;0.70;;
3355;SDS011;1691;52.486;13.374;2023-10-31T09:30:29;0.70;;;0.60;;
3355;SDS011;1691;52.486;13.374;2023-10-31T09:32:56;0.90;;;0.60;;
3355;SDS011;1691;52.486;13.374;2023-10-31T09:35:23;8.27;;;7.17;;
3355;SDS011;1691;52.486;13.374;2023-10-31T09:37:53;1.40;;;1.30;;
3355;SDS011;1691;52.486;13.374;2023-10-31T09:40:21;5.80;;;4.73;;
3355;SDS011;1691;52.486;13.374;2023-10-31T09:42:48;3.40;;;1.20;;
3355;SDS011;1691;52.486;13.374;2023-10-31T09:45:17;2.00;;;0.87;;
3355;SDS011;1691;52.486;13.374;2023-10-31T09:47:44;0.70;;;0.70;;
3355;SDS011;1691;52.486;13.374;2023-10-31T09:50:12;0.80;;;0.80;;
3355;SDS011;1691;52.486;13.374;2023-10-31T09:52:39;4.00;;;0.83;;
3355;SDS011;1691;52.486;13.374;2023-10-31T09:55:06;1.80;;;0.90;;
3355;SDS011;1691;52.486;13.374;2023-10-31T09:57:35;1.00;;;0.80;;
3355;SDS011;1691;52.486;13.374;2023-10-31T10:00:02;0.97;;;0.97;;
3355;SDS011;1691;52.486;13.374;2023-10-31T10:02:29;4.23;;;3.27;;
3355;SDS011;1691;52.486;13.374;2023-10-31T10:04:57;1.63;;;1.37;;
3355;SDS011;1691;52.486;13.374;2023-10-31T10:07:25;0.70;;;0.60;;
3355;SDS011;1691;52.486;13.374;2023-10-31T10:09:52;3.83;;;0.90;;
3355;SDS011;1691;52.486;13.374;2023-10-31T10:12:22;0.73;;;0.73;;
3355;SDS011;1691;52.486;13.374;2023-10-31T10:14:50;2.80;;;1.00;;
3355;SDS011;1691;52.486;13.374;2023-10-31T10:17:23;0.90;;;0.77;;
3355;SDS011;1691;52.486;13.374;2023-10-31T10:22:39;1.53;;;0.90;;
3355;SDS011;1691;52.486;13.374;2023-10-31T10:25:09;2.80;;;1.60;;
3355;SDS011;1691;52.486;13.374;2023-10-31T10:27:40;9.43;;;6.80;;
3355;SDS011;1691;52.486;13.374;2023-10-31T10:30:08;1.77;;;1.00;;
3355;SDS011;1691;52.486;13.374;2023-10-31T10:32:37;0.77;;;0.77;;
3355;SDS011;1691;52.486;13.374;2023-10-31T10:35:04;0.97;;;0.90;;
3355;SDS011;1691;52.486;13.374;2023-10-31T10:37:33;1.10;;;0.90;;
3355;SDS011;1691;52.486;13.374;2023-10-31T10:40:05;0.90;;;0.90;;
3355;SDS011;1691;52.486;13.374;2023-10-31T10:45:17;1.93;;;1.40;;
3355;SDS011;1691;52.486;13.374;2023-10-31T10:47:46;0.80;;;0.80;;
3355;SDS011;1691;52.486;13.374;2023-10-31T10:50:15;0.70;;;0.67;;
3355;SDS011;1691;52.486;13.374;2023-10-31T10:52:50;1.00;;;1.00;;
3355;SDS011;1691;52.486;13.374;2023-10-31T10:55:35;1.50;;;1.40;;
3355;SDS011;1691;52.486;13.374;2023-10-31T10:58:22;1.40;;;1.30;;
3355;SDS011;1691;52.486;13.374;2023-10-31T11:01:11;1.27;;;1.20;;
3355;SDS011;1691;52.486;13.374;2023-10-31T11:03:40;3.20;;;1.00;;
3355;SDS011;1691;52.486;13.374;2023-10-31T11:06:07;2.57;;;1.50;;
3355;SDS011;1691;52.486;13.374;2023-10-31T11:08:35;1.23;;;1.10;;
3355;SDS011;1691;52.486;13.374;2023-10-31T11:11:05;1.13;;;1.03;;
3355;SDS011;1691;52.486;13.374;2023-10-31T11:13:32;1.20;;;1.10;;
3355;SDS011;1691;52.486;13.374;2023-10-31T11:16:07;1.10;;;1.10;;
3355;SDS011;1691;52.486;13.374;2023-10-31T11:18:44;0.93;;;0.93;;
3355;SDS011;1691;52.486;13.374;2023-10-31T11:21:12;1.20;;;1.20;;
3355;SDS011;1691;52.486;13.374;2023-10-31T11:23:39;1.40;;;1.30;;
3355;SDS011;1691;52.486;13.374;2023-10-31T11:26:07;7.10;;;1.90;;
3355;SDS011;1691;52.486;13.374;2023-10-31T11:28:34;8.80;;;1.30;;
3355;SDS011;1691;52.486;13.374;2023-10-31T11:31:02;1.80;;;1.70;;
3355;SDS011;1691;52.486;13.374;2023-10-31T11:33:30;2.80;;;2.60;;
3355;SDS011;1691;52.486;13.374;2023-10-31T11:36:01;12.73;;;7.23;;
3355;SDS011;1691;52.486;13.374;2023-10-31T11:38:30;1.70;;;1.60;;
3355;SDS011;1691;52.486;13.374;2023-10-31T11:41:03;3.47;;;1.60;;
3355;SDS011;1691;52.486;13.374;2023-10-31T11:46:06;8.63;;;1.47;;
3355;SDS011;1691;52.486;13.374;2023-10-31T11:48:48;0.80;;;0.80;;
3355;SDS011;1691;52.486;13.374;2023-10-31T11:51:17;4.00;;;1.60;;
3355;SDS011;1691;52.486;13.374;2023-10-31T11:53:46;1.70;;;0.90;;
3355;SDS011;1691;52.486;13.374;2023-10-31T11:56:19;3.27;;;1.30;;
3355;SDS011;1691;52.486;13.374;2023-10-31T11:59:03;1.77;;;1.27;;
3355;SDS011;1691;52.486;13.374;2023-10-31T12:01:33;1.47;;;0.97;;
3355;SDS011;1691;52.486;13.374;2023-10-31T12:04:20;0.90;;;0.90;;
3355;SDS011;1691;52.486;13.374;2023-10-31T12:06:59;4.97;;;1.23;;
3355;SDS011;1691;52.486;13.374;2023-10-31T12:09:27;0.90;;;0.70;;
3355;SDS011;1691;52.486;13.374;2023-10-31T12:11:56;2.80;;;1.00;;
3355;SDS011;1691;52.486;13.374;2023-10-31T12:14:23;0.73;;;0.73;;
3355;SDS011;1691;52.486;13.374;2023-10-31T12:16:50;1.17;;;0.77;;
3355;SDS011;1691;52.486;13.374;2023-10-31T12:19:20;1.13;;;0.87;;
3355;SDS011;1691;52.486;13.374;2023-10-31T12:21:47;0.90;;;0.90;;
3355;SDS011;1691;52.486;13.374;2023-10-31T12:24:17;1.30;;;0.90;;
3355;SDS011;1691;52.486;13.374;2023-10-31T12:26:45;4.97;;;0.73;;
3355;SDS011;1691;52.486;13.374;2023-10-31T12:29:14;0.80;;;0.70;;
3355;SDS011;1691;52.486;13.374;2023-10-31T12:31:46;1.00;;;0.67;;
3355;SDS011;1691;52.486;13.374;2023-10-31T12:34:20;1.03;;;0.93;;
3355;SDS011;1691;52.486;13.374;2023-10-31T12:36:50;0.97;;;0.70;;
3355;SDS011;1691;52.486;13.374;2023-10-31T12:39:22;1.90;;;0.73;;
3355;SDS011;1691;52.486;13.374;2023-10-31T12:41:54;6.90;;;0.80;;
3355;SDS011;1691;52.486;13.374;2023-10-31T12:44:24;0.60;;;0.50;;
3355;SDS011;1691;52.486;13.374;2023-10-31T12:46:54;0.60;;;0.60;;
3355;SDS011;1691;52.486;13.374;2023-10-31T12:49:22;2.60;;;0.60;;
3355;SDS011;1691;52.486;13.374;2023-10-31T12:54:31;0.80;;;0.50;;
3355;SDS011;1691;52.486;13.374;2023-10-31T12:57:04;1.63;;;0.60;;
3355;SDS011;1691;52.486;13.374;2023-10-31T12:59:34;0.90;;;0.60;;
3355;SDS011;1691;52.486;13.374;2023-10-31T13:02:04;4.13;;;0.50;;
3355;SDS011;1691;52.486;13.374;2023-10-31T13:04:33;0.70;;;0.70;;
3355;SDS011;1691;52.486;13.374;2023-10-31T13:07:02;0.90;;;0.60;;
3355;SDS011;1691;52.486;13.374;2023-10-31T13:09:35;0.80;;;0.80;;
3355;SDS011;1691;52.486;13.374;2023-10-31T13:12:06;0.60;;;0.50;;
3355;SDS011;1691;52.486;13.374;2023-10-31T13:14:34;1.93;;;0.70;;
3355;SDS011;1691;52.486;13.374;2023-10-31T13:17:05;4.17;;;0.90;;
3355;SDS011;1691;52.486;13.374;2023-10-31T13:19:33;0.83;;;0.83;;
3355;SDS011;1691;52.486;13.374;2023-10-31T13:22:00;0.70;;;0.67;;
3355;SDS011;1691;52.486;13.374;2023-10-31T13:24:27;3.13;;;0.60;;
3355;SDS011;1691;52.486;13.374;2023-10-31T13:26:54;2.40;;;0.60;;
3355;SDS011;1691;52.486;13.374;2023-10-31T13:29:21;0.90;;;0.90;;
3355;SDS011;1691;52.486;13.374;2023-10-31T13:31:52;0.80;;;0.80;;
3355;SDS011;1691;52.486;13.374;2023-10-31T13:34:19;0.60;;;0.60;;
3355;SDS011;1691;52.486;13.374;2023-10-31T13:36:46;1.40;;;1.30;;
3355;SDS011;1691;52.486;13.374;2023-10-31T13:39:18;1.30;;;0.80;;
3355;SDS011;1691;52.486;13.374;2023-10-31T13:41:45;0.60;;;0.57;;
3355;SDS011;1691;52.486;13.374;2023-10-31T13:44:13;0.60;;;0.60;;
3355;SDS011;1691;52.486;13.374;2023-10-31T13:46:40;0.77;;;0.50;;
3355;SDS011;1691;52.486;13.374;2023-10-31T13:49:07;0.70;;;0.50;;
3355;SDS011;1691;52.486;13.374;2023-10-31T13:51:34;0.70;;;0.60;;
3355;SDS011;1691;52.486;13.374;2023-10-31T13:54:02;0.90;;;0.90;;
3355;SDS011;1691;52.486;13.374;2023-10-31T13:56:29;1.00;;;0.70;;
3355;SDS011;1691;52.486;13.374;2023-10-31T13:58:58;1.93;;;0.80;;
3355;SDS011;1691;52.486;13.374;2023-10-31T14:01:25;0.60;;;0.50;;
3355;SDS011;1691;52.486;13.374;2023-10-31T14:03:52;2.20;;;0.50;;
3355;SDS011;1691;52.486;13.374;2023-10-31T14:06:20;7.30;;;0.80;;
3355;SDS011;1691;52.486;13.374;2023-10-31T14:08:47;6.70;;;0.70;;
3355;SDS011;1691;52.486;13.374;2023-10-31T14:11:14;1.27;;;0.83;;
3355;SDS011;1691;52.486;13.374;2023-10-31T14:13:41;0.80;;;0.80;;
3355;SDS011;1691;52.486;13.374;2023-10-31T14:16:11;7.80;;;0.90;;
3355;SDS011;1691;52.486;13.374;2023-10-31T14:18:38;2.77;;;1.07;;
3355;SDS011;1691;52.486;13.374;2023-10-31T14:21:07;4.00;;;0.77;;
3355;SDS011;1691;52.486;13.374;2023-10-31T14:23:34;0.93;;;0.73;;
3355;SDS011;1691;52.486;13.374;2023-10-31T14:26:02;0.70;;;0.70;;
3355;SDS011;1691;52.486;13.374;2023-10-31T14:28:29;1.83;;;0.93;;
3355;SDS011;1691;52.486;13.374;2023-10-31T14:30:56;1.07;;;0.70;;
3355;SDS011;1691;52.486;13.374;2023-10-31T14:33:24;0.70;;;0.70;;
3355;SDS011;1691;52.486;13.374;2023-10-31T14:35:51;2.73;;;2.50;;
3355;SDS011;1691;52.486;13.374;2023-10-31T14:38:18;4.00;;;0.80;;
3355;SDS011;1691;52.486;13.374;2023-10-31T14:40:45;1.00;;;1.00;;
3355;SDS011;1691;52.486;13.374;2023-10-31T14:43:12;0.90;;;0.90;;
3355;SDS011;1691;52.486;13.374;2023-10-31T14:45:44;1.10;;;1.00;;
3355;SDS011;1691;52.486;13.374;2023-10-31T14:48:12;1.20;;;1.10;;
3355;SDS011;1691;52.486;13.374;2023-10-31T14:50:39;4.10;;;0.80;;
3355;SDS011;1691;52.486;13.374;2023-10-31T14:53:06;1.70;;;1.60;;
3355;SDS011;1691;52.486;13.374;2023-10-31T14:55:36;27.57;;;14.50;;
3355;SDS011;1691;52.486;13.374;2023-10-31T14:58:04;3.70;;;3.10;;
3355;SDS011;1691;52.486;13.374;2023-10-31T15:00:31;2.40;;;2.30;;
3355;SDS011;1691;52.486;13.374;2023-10-31T15:02:58;1.10;;;1.00;;
3355;SDS011;1691;52.486;13.374;2023-10-31T15:05:25;0.70;;;0.70;;
3355;SDS011;1691;52.486;13.374;2023-10-31T15:07:52;1.13;;;0.90;;
3355;SDS011;1691;52.486;13.374;2023-10-31T15:10:21;0.73;;;0.73;;
3355;SDS011;1691;52.486;13.374;2023-10-31T15:12:49;0.70;;;0.70;;
3355;SDS011;1691;52.486;13.374;2023-10-31T15:15:18;9.33;;;0.83;;
3355;SDS011;1691;52.486;13.374;2023-10-31T15:17:45;2.60;;;0.70;;